Aviation Digital Data Service (ADDS)

Output produced by METARs form (0344 UTC 01 August 2014)
found at http://aviationweather.gov/adds/metars/
 
KRME 312328Z 0100/0124 11004KT P6SM FEW070 
     TEMPO 0109/0112 4SM BR 
     FM011500 20006KT P6SM FEW060 SCT250